Time;durP1;ratioP1;P1;durP2;ratioP2;P2;SDS_P1;SDS_P2;PMS_P1;PMS_P2;Temp;Humidity;BMP_temperature;BMP_pressure;BME280_temperature;BME280_humidity;BME280_pressure;Samples;Min_cycle;Max_cycle;Signal;HPM_P1;HPM_P2
2021/03/19 00:00:10;;;;;;;4.53;1.85;;;3.20;99.90;;;;;;5096225;28;20425;-70
2021/03/19 00:02:36;;;;;;;6.47;1.67;;;3.10;99.90;;;;;;5095866;28;20024;-69
2021/03/19 00:05:02;;;;;;;2.78;1.63;;;3.10;99.90;;;;;;5096860;28;20070;-70
2021/03/19 00:07:40;;;;;;;2.15;1.70;;;3.10;99.90;;;;;;5095985;28;20467;-70
2021/03/19 00:10:06;;;;;;;6.60;1.67;;;3.10;99.90;;;;;;5101991;28;20031;-69
2021/03/19 00:12:32;;;;;;;3.13;1.88;;;3.00;99.90;;;;;;5096785;28;20074;-70
2021/03/19 00:14:57;;;;;;;3.20;1.73;;;3.00;99.90;;;;;;5092515;28;20459;-69
2021/03/19 00:17:23;;;;;;;2.28;1.92;;;3.00;99.90;;;;;;5092746;28;20031;-71
2021/03/19 00:19:48;;;;;;;4.10;2.20;;;3.00;99.90;;;;;;5091850;28;20081;-71
2021/03/19 00:22:14;;;;;;;3.67;2.50;;;3.00;99.90;;;;;;5093153;28;20028;-69
2021/03/19 00:24:39;;;;;;;3.95;1.85;;;3.00;99.90;;;;;;5092787;28;20036;-71
2021/03/19 00:27:05;;;;;;;2.45;2.17;;;3.00;99.90;;;;;;5091941;28;20115;-70
2021/03/19 00:29:31;;;;;;;2.88;2.05;;;2.90;99.90;;;;;;5092482;28;20032;-71
2021/03/19 00:31:56;;;;;;;3.25;2.45;;;3.00;99.90;;;;;;5092329;28;20043;-70
2021/03/19 00:34:22;;;;;;;2.30;2.10;;;3.00;99.90;;;;;;5091857;28;20375;-70
2021/03/19 00:36:47;;;;;;;5.78;2.85;;;2.90;99.90;;;;;;5092630;28;20028;-70
2021/03/19 00:39:13;;;;;;;2.63;2.42;;;2.90;99.90;;;;;;5092401;28;20043;-70
2021/03/19 00:41:44;;;;;;;5.18;2.90;;;2.90;99.90;;;;;;5091727;28;20027;-69
2021/03/19 00:44:10;;;;;;;3.60;2.63;;;2.90;99.90;;;;;;5092305;28;20020;-70
2021/03/19 00:46:35;;;;;;;4.57;2.90;;;2.80;99.90;;;;;;5092470;28;20111;-70
2021/03/19 00:49:01;;;;;;;5.68;2.80;;;2.80;99.90;;;;;;5091322;28;20052;-70
2021/03/19 00:51:29;;;;;;;4.38;2.33;;;2.80;99.90;;;;;;5092506;28;20032;-70
2021/03/19 00:53:55;;;;;;;2.72;2.53;;;2.80;99.90;;;;;;5092238;28;20046;-69
2021/03/19 00:56:21;;;;;;;4.18;2.78;;;2.80;99.90;;;;;;5104258;28;20084;-70
2021/03/19 00:58:46;;;;;;;4.05;3.30;;;2.80;99.90;;;;;;5094194;28;20064;-69
2021/03/19 01:01:12;;;;;;;3.38;2.78;;;2.70;99.90;;;;;;5091059;28;20020;-70
2021/03/19 01:03:37;;;;;;;3.85;3.17;;;2.70;99.90;;;;;;5091025;28;20501;-70
2021/03/19 01:06:06;;;;;;;6.97;2.92;;;2.70;99.90;;;;;;5092105;28;20482;-70
2021/03/19 01:08:32;;;;;;;7.15;3.03;;;2.70;99.90;;;;;;5091241;28;20476;-70
2021/03/19 01:10:58;;;;;;;6.05;3.20;;;2.60;99.90;;;;;;5105874;28;20058;-70
2021/03/19 01:13:24;;;;;;;4.68;3.97;;;2.60;99.90;;;;;;5092116;28;20166;-70
2021/03/19 01:15:51;;;;;;;4.43;3.33;;;2.60;99.90;;;;;;5090659;28;20073;-71
2021/03/19 01:18:19;;;;;;;6.65;3.63;;;2.60;99.90;;;;;;5091866;28;20459;-70
2021/03/19 01:20:46;;;;;;;6.70;3.92;;;2.60;99.90;;;;;;5092002;28;20035;-70
2021/03/19 01:23:12;;;;;;;6.60;3.60;;;2.60;99.90;;;;;;5090960;28;20028;-70
2021/03/19 01:25:39;;;;;;;4.45;3.55;;;2.50;99.90;;;;;;5092051;28;20023;-69
2021/03/19 01:28:05;;;;;;;4.35;3.45;;;2.50;99.90;;;;;;5091398;28;20016;-70
2021/03/19 01:30:34;;;;;;;4.88;3.45;;;2.40;99.90;;;;;;5091166;28;20055;-69
2021/03/19 01:32:59;;;;;;;4.03;3.53;;;2.40;99.90;;;;;;5091337;28;20464;-69
2021/03/19 01:35:28;;;;;;;5.80;3.72;;;2.40;99.90;;;;;;5091859;28;20031;-70
2021/03/19 01:37:53;;;;;;;6.22;3.58;;;2.40;99.90;;;;;;5090607;28;20024;-70
2021/03/19 01:40:23;;;;;;;4.65;3.50;;;2.30;99.90;;;;;;5091926;28;20031;-70
2021/03/19 01:43:08;;;;;;;6.70;3.55;;;2.30;99.90;;;;;;5091607;28;20383;-70
2021/03/19 01:46:18;;;;;;;5.65;3.83;;;2.30;99.90;;;;;;5091249;28;20039;-70
2021/03/19 01:49:22;;;;;;;8.90;3.60;;;2.30;99.90;;;;;;5091618;28;20032;-70
2021/03/19 01:52:25;;;;;;;7.55;4.10;;;2.20;99.90;;;;;;5093913;28;20374;-69
2021/03/19 01:55:28;;;;;;;7.22;3.53;;;2.20;99.90;;;;;;5092974;28;20046;-69
2021/03/19 01:58:31;;;;;;;4.45;3.83;;;2.20;99.90;;;;;;5091024;28;20042;-70
2021/03/19 02:01:34;;;;;;;6.20;3.30;;;2.20;99.90;;;;;;5095847;28;20101;-70
2021/03/19 02:04:37;;;;;;;8.63;3.90;;;2.20;99.90;;;;;;5093659;28;20127;-70
2021/03/19 02:07:40;;;;;;;5.03;3.38;;;2.10;99.90;;;;;;5098314;28;20022;-70
2021/03/19 02:10:43;;;;;;;5.93;3.88;;;2.10;99.90;;;;;;5100579;28;20035;-71
2021/03/19 02:13:46;;;;;;;6.93;3.75;;;2.10;99.90;;;;;;5091554;28;20755;-70
2021/03/19 02:16:49;;;;;;;4.20;3.33;;;2.10;99.90;;;;;;5095034;28;20016;-70
2021/03/19 02:19:52;;;;;;;6.10;3.90;;;2.00;99.90;;;;;;5094741;28;20025;-69
2021/03/19 02:22:55;;;;;;;10.60;4.53;;;2.00;99.90;;;;;;5095209;28;20024;-69
2021/03/19 02:25:58;;;;;;;8.10;4.10;;;2.00;99.90;;;;;;5095229;28;20035;-69
2021/03/19 02:29:03;;;;;;;5.68;3.80;;;1.90;99.90;;;;;;5095169;28;20035;-71
2021/03/19 02:31:53;;;;;;;7.47;4.10;;;1.90;99.90;;;;;;5070528;28;20036;-69
2021/03/19 02:34:20;;;;;;;;;;;2.00;99.90;;;;;;5094753;28;20028;-70
2021/03/19 02:36:45;;;;;;;3.80;3.30;;;1.90;99.90;;;;;;5095297;28;20355;-69
2021/03/19 02:39:11;;;;;;;6.43;4.32;;;1.90;99.90;;;;;;5094551;28;20024;-69
2021/03/19 02:41:37;;;;;;;7.65;3.90;;;1.80;99.90;;;;;;5093872;28;20028;-69
2021/03/19 02:44:03;;;;;;;6.88;3.92;;;1.80;99.90;;;;;;5094538;28;20020;-70
2021/03/19 02:46:28;;;;;;;6.10;4.78;;;1.80;99.90;;;;;;5094676;28;20120;-69
2021/03/19 02:48:54;;;;;;;6.75;4.03;;;1.80;99.90;;;;;;5093927;28;20055;-69
2021/03/19 02:51:19;;;;;;;9.43;4.22;;;1.80;99.90;;;;;;5094632;28;20020;-70
2021/03/19 02:53:45;;;;;;;9.25;3.83;;;1.70;99.90;;;;;;5094207;28;20035;-70
2021/03/19 02:56:12;;;;;;;8.38;4.30;;;1.70;99.90;;;;;;5093633;28;20021;-69
2021/03/19 02:58:37;;;;;;;7.45;4.18;;;1.70;99.90;;;;;;5094601;28;20031;-70
2021/03/19 03:01:05;;;;;;;9.82;3.95;;;1.70;99.90;;;;;;5093749;28;20411;-69
2021/03/19 03:03:32;;;;;;;6.53;4.00;;;1.70;99.90;;;;;;5094375;28;20020;-69
2021/03/19 03:05:58;;;;;;;11.20;4.43;;;1.60;99.90;;;;;;5099510;28;20148;-70
2021/03/19 03:08:24;;;;;;;6.32;3.92;;;1.60;99.90;;;;;;5110667;28;20044;-69
2021/03/19 03:10:52;;;;;;;6.22;4.20;;;1.60;99.90;;;;;;5110407;28;20044;-70
2021/03/19 03:13:18;;;;;;;6.80;3.70;;;1.60;99.90;;;;;;5102045;28;20039;-70
2021/03/19 03:15:45;;;;;;;10.45;5.85;;;1.50;99.90;;;;;;5105172;28;20022;-70
2021/03/19 03:18:15;;;;;;;6.07;4.05;;;1.60;99.90;;;;;;5096543;27;20099;-70
2021/03/19 03:20:49;;;;;;;5.75;3.83;;;1.50;99.90;;;;;;5094047;28;20107;-70
2021/03/19 03:23:17;;;;;;;5.32;3.70;;;1.50;99.90;;;;;;5096208;28;20027;-70
2021/03/19 03:25:42;;;;;;;10.68;4.40;;;1.50;99.90;;;;;;5104253;28;20065;-70
2021/03/19 03:28:09;;;;;;;22.70;6.47;;;1.50;99.90;;;;;;5093713;28;20028;-69
2021/03/19 03:30:39;;;;;;;14.98;4.68;;;1.50;99.90;;;;;;5093457;28;20039;-70
2021/03/19 03:33:06;;;;;;;8.02;4.00;;;1.40;99.90;;;;;;5093771;28;20039;-69
2021/03/19 03:35:32;;;;;;;10.30;3.97;;;1.40;99.90;;;;;;5093767;28;20028;-69
2021/03/19 03:38:00;;;;;;;13.32;4.78;;;1.40;99.90;;;;;;5092756;28;20515;-69
2021/03/19 03:40:45;;;;;;;9.10;4.40;;;1.40;99.90;;;;;;5097746;28;20118;-70
2021/03/19 03:43:14;;;;;;;13.55;4.05;;;1.40;99.90;;;;;;5100175;28;20059;-70
2021/03/19 03:45:41;;;;;;;8.23;4.18;;;1.40;99.90;;;;;;5093550;28;20099;-70
2021/03/19 03:48:07;;;;;;;6.93;4.07;;;1.30;99.90;;;;;;5093649;28;20036;-70
2021/03/19 03:50:33;;;;;;;9.88;4.68;;;1.30;99.90;;;;;;5093028;28;20438;-71
2021/03/19 03:52:59;;;;;;;10.68;4.28;;;1.30;99.90;;;;;;5097767;28;20032;-70
2021/03/19 03:55:24;;;;;;;6.25;4.13;;;1.40;99.90;;;;;;5093269;28;20016;-70
2021/03/19 03:57:50;;;;;;;10.60;4.28;;;1.30;99.90;;;;;;5092456;28;20497;-69
2021/03/19 04:00:19;;;;;;;9.15;4.50;;;1.40;99.90;;;;;;5093349;28;20444;-69
2021/03/19 04:02:45;;;;;;;12.43;5.00;;;1.40;99.90;;;;;;5095063;28;20020;-70
2021/03/19 04:05:17;;;;;;;11.38;4.25;;;1.30;99.90;;;;;;5093332;28;20454;-70
2021/03/19 04:07:42;;;;;;;5.80;4.00;;;1.30;99.90;;;;;;5097947;28;20044;-70
2021/03/19 04:10:08;;;;;;;4.25;3.53;;;1.40;99.90;;;;;;5094091;28;20490;-70
2021/03/19 04:12:34;;;;;;;6.95;4.05;;;1.30;99.90;;;;;;5092103;28;20083;-69
2021/03/19 04:15:00;;;;;;;8.85;4.93;;;1.30;99.90;;;;;;5100107;28;20055;-70
2021/03/19 04:17:32;;;;;;;8.02;4.28;;;1.30;99.90;;;;;;5099418;28;20064;-69
2021/03/19 04:19:58;;;;;;;11.50;4.45;;;1.20;99.90;;;;;;5092865;28;20020;-69
2021/03/19 04:22:27;;;;;;;9.40;4.47;;;1.20;99.90;;;;;;5095680;28;20057;-69
2021/03/19 04:24:55;;;;;;;10.32;3.97;;;1.30;99.90;;;;;;5108252;28;20024;-69
2021/03/19 04:27:23;;;;;;;5.78;3.58;;;1.20;99.90;;;;;;5092003;28;20388;-70
2021/03/19 04:29:49;;;;;;;9.48;3.67;;;1.20;99.90;;;;;;5092252;28;20077;-69
2021/03/19 04:32:15;;;;;;;11.90;5.07;;;1.20;99.90;;;;;;5092426;28;20425;-71
2021/03/19 04:34:41;;;;;;;9.40;4.47;;;1.10;99.90;;;;;;5091987;28;20043;-70
2021/03/19 04:37:08;;;;;;;9.82;3.88;;;1.20;99.90;;;;;;5092199;28;20028;-71
2021/03/19 04:39:37;;;;;;;9.10;3.70;;;1.10;99.90;;;;;;5090525;28;20027;-69
2021/03/19 04:42:03;;;;;;;9.18;4.70;;;1.10;99.90;;;;;;5092422;28;20066;-70
2021/03/19 04:44:36;;;;;;;9.88;4.60;;;1.10;99.90;;;;;;5092468;28;20479;-69
2021/03/19 04:47:02;;;;;;;7.63;4.30;;;1.00;99.90;;;;;;5091596;28;20077;-69
2021/03/19 04:49:28;;;;;;;8.40;3.95;;;1.00;99.90;;;;;;5092420;28;20024;-70
2021/03/19 04:51:54;;;;;;;9.32;4.90;;;1.00;99.90;;;;;;5091660;28;20430;-69
2021/03/19 04:54:20;;;;;;;8.48;4.38;;;1.00;99.90;;;;;;5091378;28;20059;-69
2021/03/19 04:56:45;;;;;;;8.63;5.15;;;0.90;99.90;;;;;;5091871;28;20115;-70
2021/03/19 04:59:11;;;;;;;7.15;4.60;;;0.90;99.90;;;;;;5092050;28;20073;-70
2021/03/19 05:01:49;;;;;;;10.48;5.05;;;0.90;99.90;;;;;;5091075;28;20077;-69
2021/03/19 05:04:16;;;;;;;7.45;4.38;;;0.90;99.90;;;;;;5091742;28;20467;-70
2021/03/19 05:06:42;;;;;;;10.88;4.80;;;0.90;99.90;;;;;;5092025;28;20529;-70
2021/03/19 05:09:07;;;;;;;13.00;4.30;;;0.90;99.90;;;;;;5090601;28;20024;-69
2021/03/19 05:11:34;;;;;;;10.95;4.50;;;0.90;99.90;;;;;;5091546;28;20048;-70
2021/03/19 05:14:00;;;;;;;18.00;5.38;;;0.90;99.90;;;;;;5091568;28;20573;-70
2021/03/19 05:16:25;;;;;;;8.25;4.25;;;1.00;99.90;;;;;;5105643;28;20024;-71
2021/03/19 05:18:51;;;;;;;16.42;4.80;;;0.90;99.90;;;;;;5091612;28;20027;-70
2021/03/19 05:21:16;;;;;;;13.20;4.45;;;0.90;99.90;;;;;;5091798;28;20023;-70
2021/03/19 05:23:42;;;;;;;12.23;4.60;;;1.00;99.90;;;;;;5091167;28;20352;-69
2021/03/19 05:26:08;;;;;;;10.70;5.25;;;0.90;99.90;;;;;;5091418;28;20671;-70
2021/03/19 05:28:34;;;;;;;7.90;4.38;;;1.00;99.90;;;;;;5091965;28;20039;-69
2021/03/19 05:31:00;;;;;;;7.25;4.47;;;1.00;99.90;;;;;;5090950;28;20031;-69
2021/03/19 05:33:38;;;;;;;6.88;4.35;;;1.00;99.90;;;;;;5091407;28;20034;-69
2021/03/19 05:36:04;;;;;;;14.77;4.97;;;1.00;99.90;;;;;;5090714;28;20026;-71
2021/03/19 05:38:29;;;;;;;11.30;4.47;;;1.00;99.90;;;;;;5091012;28;20016;-70
2021/03/19 05:40:57;;;;;;;9.00;4.75;;;1.00;99.90;;;;;;5091066;28;20016;-70
2021/03/19 05:43:23;;;;;;;10.32;4.38;;;1.10;99.90;;;;;;5090821;28;20024;-70
2021/03/19 05:45:51;;;;;;;19.65;5.93;;;1.10;99.90;;;;;;5091578;28;20016;-70
2021/03/19 05:48:18;;;;;;;13.63;4.88;;;1.00;99.90;;;;;;5093770;28;20040;-70
2021/03/19 05:50:44;;;;;;;9.02;4.40;;;1.10;99.90;;;;;;5099686;28;20468;-71
2021/03/19 05:53:15;;;;;;;12.15;4.55;;;1.10;99.90;;;;;;5097018;28;20039;-69
2021/03/19 05:55:41;;;;;;;11.27;4.65;;;1.10;99.90;;;;;;5095975;28;20016;-70
2021/03/19 05:58:26;;;;;;;9.20;4.32;;;1.20;99.90;;;;;;5095498;28;20055;-70
2021/03/19 06:00:57;;;;;;;19.52;5.05;;;1.10;99.90;;;;;;5101999;28;20028;-71
2021/03/19 06:03:25;;;;;;;10.98;4.95;;;1.20;99.90;;;;;;5098074;28;20130;-71
2021/03/19 06:06:08;;;;;;;15.02;5.68;;;1.10;99.90;;;;;;5100825;28;20103;-70
2021/03/19 06:08:38;;;;;;;9.13;3.90;;;1.10;99.90;;;;;;5099648;28;20028;-70
2021/03/19 06:11:20;;;;;;;17.80;5.15;;;1.20;99.90;;;;;;5094232;28;20085;-70
2021/03/19 06:14:03;;;;;;;17.70;5.88;;;1.20;99.90;;;;;;5095145;28;20040;-70
2021/03/19 06:17:09;;;;;;;13.60;5.07;;;1.20;99.90;;;;;;5109550;28;20043;-68
2021/03/19 06:19:53;;;;;;;13.88;4.60;;;1.70;99.90;;;;;;5086539;28;20854;-69
2021/03/19 06:22:33;;;;;;;10.57;5.65;;;1.20;99.90;;;;;;5115725;28;20044;-70
2021/03/19 06:25:10;;;;;;;11.82;4.97;;;1.30;99.90;;;;;;5110007;28;20032;-70
2021/03/19 06:27:51;;;;;;;10.80;5.13;;;1.30;99.90;;;;;;5115102;28;20035;-70
2021/03/19 06:30:24;;;;;;;;;;;1.30;99.90;;;;;;5112053;28;20023;-70
2021/03/19 06:33:11;;;;;;;12.23;4.13;;;1.40;99.90;;;;;;5112553;28;20375;-69
2021/03/19 06:35:40;;;;;;;15.25;4.22;;;1.40;99.90;;;;;;5110225;28;20028;-69
2021/03/19 06:38:39;;;;;;;14.98;6.30;;;1.40;99.90;;;;;;5111788;28;20099;-70
2021/03/19 06:41:31;;;;;;;9.73;4.75;;;1.40;99.90;;;;;;5110918;28;20490;-70
2021/03/19 06:44:22;;;;;;;10.02;4.45;;;1.50;99.90;;;;;;5110636;28;20475;-69
2021/03/19 06:46:58;;;;;;;22.05;6.43;;;1.50;99.90;;;;;;5106043;28;20032;-69
2021/03/19 06:49:25;;;;;;;10.90;4.28;;;1.60;99.90;;;;;;5106921;28;20456;-73
2021/03/19 06:52:14;;;;;;;15.73;4.72;;;1.50;99.90;;;;;;5111547;28;20040;-70
2021/03/19 06:55:06;;;;;;;10.73;4.68;;;1.70;99.90;;;;;;5109260;28;20053;-70
2021/03/19 06:57:48;;;;;;;15.25;4.53;;;1.70;99.90;;;;;;5107848;28;20020;-69
2021/03/19 07:00:42;;;;;;;9.80;4.90;;;1.80;99.90;;;;;;5109153;28;20026;-69
2021/03/19 07:03:16;;;;;;;11.95;4.55;;;1.80;99.90;;;;;;5114132;28;20073;-70
2021/03/19 07:06:10;;;;;;;14.80;5.03;;;1.90;99.90;;;;;;5109157;28;20020;-70
2021/03/19 07:09:04;;;;;;;10.98;4.90;;;1.90;99.90;;;;;;5110618;28;20035;-70
2021/03/19 07:12:00;;;;;;;12.35;4.43;;;2.10;99.90;;;;;;5075600;28;20032;-69
2021/03/19 07:14:53;;;;;;;9.50;4.50;;;2.10;99.90;;;;;;5111350;28;20024;-70
2021/03/19 07:17:30;;;;;;;12.63;4.55;;;2.20;99.90;;;;;;5094053;28;20024;-70
2021/03/19 07:20:23;;;;;;;15.27;6.40;;;2.30;99.90;;;;;;5098165;28;20400;-69
2021/03/19 07:23:20;;;;;;;12.77;4.43;;;2.30;99.90;;;;;;5095051;27;20103;-71
2021/03/19 07:25:46;;;;;;;6.90;4.05;;;2.40;99.90;;;;;;5084203;28;20060;-70
2021/03/19 07:28:46;;;;;;;13.35;4.55;;;2.40;99.90;;;;;;5092636;28;20431;-69
2021/03/19 07:31:15;;;;;;;;;;;2.50;99.90;;;;;;5094614;28;20101;-70
2021/03/19 07:34:16;;;;;;;12.45;4.45;;;2.60;99.90;;;;;;5110510;28;19907;-69
2021/03/19 07:36:46;;;;;;;10.75;4.35;;;2.70;99.90;;;;;;5109174;28;20030;-69
2021/03/19 07:39:49;;;;;;;11.55;4.03;;;2.80;99.90;;;;;;5110362;28;20016;-70
2021/03/19 07:42:43;;;;;;;9.68;3.60;;;2.90;99.90;;;;;;5092301;28;20044;-68
2021/03/19 07:45:39;;;;;;;15.00;4.85;;;3.00;99.90;;;;;;5093459;28;20071;-72
2021/03/19 07:48:36;;;;;;;12.77;4.20;;;3.00;99.90;;;;;;5106260;28;20020;-74
2021/03/19 07:51:34;;;;;;;17.58;4.85;;;3.10;99.90;;;;;;5108015;28;20436;-73
2021/03/19 07:54:09;;;;;;;10.23;4.18;;;3.20;99.90;;;;;;5099967;28;20026;-75
2021/03/19 07:57:02;;;;;;;9.25;4.38;;;3.30;99.90;;;;;;5094676;28;20468;-74
2021/03/19 07:59:30;;;;;;;11.00;4.55;;;3.30;99.90;;;;;;5096273;28;20069;-73
2021/03/19 08:02:29;;;;;;;18.73;5.03;;;3.40;99.90;;;;;;5093348;28;20032;-73
2021/03/19 08:05:05;;;;;;;14.75;5.68;;;3.50;99.90;;;;;;5095491;28;20036;-73
2021/03/19 08:07:49;;;;;;;15.45;4.70;;;3.60;99.90;;;;;;5101432;28;20027;-72
2021/03/19 08:10:37;;;;;;;13.65;4.88;;;3.60;99.90;;;;;;5104926;28;20053;-73
2021/03/19 08:13:29;;;;;;;11.48;4.70;;;3.80;99.90;;;;;;5107232;28;20443;-72
2021/03/19 08:16:11;;;;;;;18.23;5.13;;;3.90;99.90;;;;;;5108452;28;20030;-73
2021/03/19 08:18:46;;;;;;;12.77;4.82;;;4.00;99.90;;;;;;5092551;28;20097;-72
2021/03/19 08:21:22;;;;;;;8.52;4.85;;;4.00;99.90;;;;;;5093058;28;20464;-73
2021/03/19 08:24:17;;;;;;;13.25;4.30;;;4.20;99.90;;;;;;5093002;28;20472;-73
2021/03/19 08:27:11;;;;;;;14.90;5.00;;;4.20;99.90;;;;;;5092526;28;20028;-73
2021/03/19 08:29:43;;;;;;;15.95;5.70;;;4.30;99.90;;;;;;5085134;28;20120;-72
2021/03/19 08:32:43;;;;;;;10.15;5.10;;;4.40;99.90;;;;;;5109300;28;20474;-72
2021/03/19 08:35:18;;;;;;;11.82;4.95;;;4.40;99.90;;;;;;5107733;28;20111;-72
2021/03/19 08:38:09;;;;;;;9.40;5.38;;;4.50;99.90;;;;;;5110729;28;20046;-71
2021/03/19 08:41:01;;;;;;;14.35;5.93;;;4.60;99.90;;;;;;5120062;28;20016;-71
2021/03/19 08:43:40;;;;;;;14.80;4.72;;;4.60;99.90;;;;;;5113829;28;20035;-72
2021/03/19 08:46:33;;;;;;;11.93;5.03;;;4.60;99.90;;;;;;5112306;28;20034;-72
2021/03/19 08:49:10;;;;;;;7.82;4.25;;;4.70;99.90;;;;;;5113162;28;20127;-72
2021/03/19 08:51:39;;;;;;;10.52;5.05;;;4.80;99.90;;;;;;5112160;28;20470;-72
2021/03/19 08:54:14;;;;;;;11.65;4.28;;;4.90;99.90;;;;;;5111835;28;20029;-70
2021/03/19 08:56:51;;;;;;;11.13;4.72;;;4.90;99.90;;;;;;5092666;28;20038;-73
2021/03/19 08:59:34;;;;;;;19.85;4.60;;;5.00;99.90;;;;;;5092380;28;20522;-71
2021/03/19 09:02:18;;;;;;;15.18;4.25;;;5.20;99.90;;;;;;5091305;28;20052;-70
2021/03/19 09:04:52;;;;;;;11.57;4.07;;;5.20;99.90;;;;;;5092097;28;20024;-70
2021/03/19 09:07:39;;;;;;;9.38;4.40;;;5.30;99.90;;;;;;5091877;28;20062;-73
2021/03/19 09:10:25;;;;;;;9.65;3.25;;;5.40;99.90;;;;;;5111775;28;20102;-72
2021/03/19 09:12:57;;;;;;;8.77;3.90;;;5.40;99.90;;;;;;5055645;28;20383;-72
2021/03/19 09:15:23;;;;;;;13.75;4.85;;;5.50;99.90;;;;;;5110842;28;20070;-72
2021/03/19 09:17:59;;;;;;;6.07;3.10;;;5.60;99.90;;;;;;5092194;28;20490;-70
2021/03/19 09:20:30;;;;;;;8.68;3.17;;;5.70;99.90;;;;;;5097378;28;20116;-72
2021/03/19 09:23:11;;;;;;;10.75;2.95;;;5.70;99.90;;;;;;5110687;28;20065;-73
2021/03/19 09:25:49;;;;;;;6.57;2.45;;;5.70;99.90;;;;;;5091879;28;20031;-73
2021/03/19 09:28:35;;;;;;;7.13;3.17;;;5.90;99.90;;;;;;5091174;28;20479;-72
2021/03/19 09:31:07;;;;;;;4.47;2.50;;;6.00;99.90;;;;;;5103577;28;20031;-72
2021/03/19 09:33:47;;;;;;;3.58;2.20;;;6.00;99.90;;;;;;5102953;28;20028;-72
2021/03/19 09:36:51;;;;;;;10.93;3.10;;;6.10;99.90;;;;;;5090905;28;20052;-71
2021/03/19 09:39:47;;;;;;;8.45;2.50;;;6.30;99.90;;;;;;5091612;28;20040;-72
2021/03/19 09:42:19;;;;;;;6.35;2.70;;;6.40;99.90;;;;;;5097553;28;20391;-72
2021/03/19 09:44:50;;;;;;;9.80;2.83;;;6.50;99.90;;;;;;5098521;28;20028;-72
2021/03/19 09:47:20;;;;;;;3.40;2.40;;;6.50;99.90;;;;;;5091647;28;20056;-71
2021/03/19 09:49:45;;;;;;;6.45;2.58;;;6.70;99.90;;;;;;5091384;28;20060;-73
2021/03/19 09:52:17;;;;;;;7.25;3.13;;;6.70;99.90;;;;;;5105520;28;20078;-72
2021/03/19 09:54:43;;;;;;;4.45;2.42;;;6.80;99.90;;;;;;5100548;28;20048;-73
2021/03/19 09:57:20;;;;;;;3.17;2.50;;;6.80;99.90;;;;;;5092180;28;20072;-74
2021/03/19 09:59:53;;;;;;;6.32;2.75;;;6.80;99.90;;;;;;5092150;28;20081;-72
2021/03/19 10:02:27;;;;;;;5.57;2.42;;;6.90;99.90;;;;;;5097331;28;20020;-73
2021/03/19 10:04:53;;;;;;;6.68;3.78;;;7.00;99.90;;;;;;5100705;28;20475;-74
2021/03/19 10:07:22;;;;;;;7.97;2.90;;;7.00;99.90;;;;;;5104485;28;20482;-73
2021/03/19 10:09:58;;;;;;;7.68;3.22;;;7.00;99.90;;;;;;5110168;28;20032;-73
2021/03/19 10:12:27;;;;;;;6.47;2.53;;;7.00;99.90;;;;;;5097183;28;20133;-73
2021/03/19 10:14:56;;;;;;;9.68;3.05;;;7.00;99.90;;;;;;5093127;28;20028;-72
2021/03/19 10:17:33;;;;;;;5.10;2.90;;;7.10;99.90;;;;;;5100272;28;20023;-72
2021/03/19 10:20:20;;;;;;;4.47;3.10;;;7.10;99.90;;;;;;5095568;28;20020;-73
2021/03/19 10:22:54;;;;;;;9.50;2.38;;;7.10;99.90;;;;;;5098805;28;20028;-73
2021/03/19 10:25:31;;;;;;;7.90;2.58;;;7.10;99.90;;;;;;5094235;28;20024;-72
2021/03/19 10:28:16;;;;;;;6.30;2.63;;;7.20;99.90;;;;;;5100258;28;20031;-72
2021/03/19 10:30:55;;;;;;;5.57;2.67;;;7.20;99.90;;;;;;5096808;28;20039;-72
2021/03/19 10:33:24;;;;;;;5.90;2.95;;;7.20;99.90;;;;;;5094756;28;20105;-72
2021/03/19 10:35:52;;;;;;;3.70;2.60;;;7.10;99.90;;;;;;5105354;28;20042;-72
2021/03/19 10:38:45;;;;;;;4.40;2.22;;;7.00;99.90;;;;;;5099856;28;20491;-71
2021/03/19 10:41:22;;;;;;;6.75;2.17;;;6.90;99.90;;;;;;5101204;28;20425;-72
2021/03/19 10:44:09;;;;;;;4.53;2.53;;;6.90;99.90;;;;;;5100749;28;20024;-71
2021/03/19 10:46:46;;;;;;;2.60;1.85;;;7.00;99.90;;;;;;5097444;28;20115;-71
2021/03/19 10:49:48;;;;;;;6.13;2.28;;;7.00;99.90;;;;;;5103742;28;20043;-71
2021/03/19 10:52:22;;;;;;;5.60;2.67;;;7.10;99.90;;;;;;5091694;28;20074;-72
2021/03/19 10:54:49;;;;;;;5.32;2.30;;;7.10;99.90;;;;;;5107374;28;20028;-71
2021/03/19 10:57:39;;;;;;;7.78;2.65;;;7.20;99.90;;;;;;5107873;28;20034;-74
2021/03/19 11:00:22;;;;;;;3.95;2.30;;;7.30;99.90;;;;;;5103776;28;20040;-71
2021/03/19 11:03:03;;;;;;;4.03;2.88;;;7.30;99.90;;;;;;5111270;28;20455;-72
2021/03/19 11:05:29;;;;;;;11.00;2.88;;;7.30;99.90;;;;;;5096113;28;20020;-72
2021/03/19 11:07:54;;;;;;;2.92;1.98;;;7.40;99.90;;;;;;5104664;28;20286;-72
2021/03/19 11:10:27;;;;;;;3.63;2.45;;;7.60;99.90;;;;;;5103151;28;20016;-71
2021/03/19 11:13:13;;;;;;;3.10;2.17;;;7.70;99.90;;;;;;5099255;28;20487;-72
2021/03/19 11:15:47;;;;;;;8.27;3.53;;;7.90;99.90;;;;;;5096087;28;20023;-71
2021/03/19 11:18:35;;;;;;;4.60;2.17;;;7.90;99.90;;;;;;5109123;28;20034;-70
2021/03/19 11:21:28;;;;;;;5.53;2.60;;;7.70;99.90;;;;;;5110452;28;20102;-71
2021/03/19 11:24:12;;;;;;;5.68;2.00;;;7.80;99.90;;;;;;5112755;28;20031;-72
2021/03/19 11:26:39;;;;;;;5.15;2.03;;;7.80;99.90;;;;;;5099391;28;20034;-71
2021/03/19 11:29:09;;;;;;;5.30;2.45;;;7.90;99.90;;;;;;5111600;28;20034;-71
2021/03/19 11:32:13;;;;;;;2.92;2.10;;;7.90;99.90;;;;;;5112923;28;20023;-70
2021/03/19 11:34:45;;;;;;;2.60;2.08;;;8.00;99.90;;;;;;5049478;28;20025;-70
2021/03/19 11:37:19;;;;;;;2.03;1.60;;;8.10;99.90;;;;;;5050593;28;20094;-72
2021/03/19 11:39:56;;;;;;;3.80;2.03;;;8.00;99.90;;;;;;5083867;28;20031;-71
2021/03/19 11:42:26;;;;;;;8.38;2.03;;;8.20;99.90;;;;;;5108330;28;20487;-73
2021/03/19 11:44:58;;;;;;;4.22;1.85;;;8.20;99.90;;;;;;5108911;28;20039;-72
2021/03/19 11:47:31;;;;;;;2.63;1.42;;;8.20;99.90;;;;;;5110031;28;20543;-71
2021/03/19 11:50:12;;;;;;;3.70;1.08;;;8.30;97.00;;;;;;5108816;28;20421;-71
2021/03/19 11:52:37;;;;;;;1.85;1.20;;;8.30;96.00;;;;;;5102943;28;20084;-72
2021/03/19 11:55:04;;;;;;;1.73;1.00;;;8.30;93.10;;;;;;5101518;28;20024;-72
2021/03/19 11:57:31;;;;;;;2.30;1.35;;;8.40;92.10;;;;;;5106354;28;20466;-72
2021/03/19 11:59:56;;;;;;;3.38;1.10;;;8.40;94.10;;;;;;5101605;28;20459;-73
2021/03/19 12:02:34;;;;;;;2.22;1.23;;;8.50;95.60;;;;;;5103575;28;20027;-72
2021/03/19 12:04:59;;;;;;;3.05;1.25;;;8.50;94.20;;;;;;5111590;28;20024;-73
2021/03/19 12:07:25;;;;;;;2.03;1.30;;;8.60;94.80;;;;;;5105800;28;20031;-72
2021/03/19 12:09:51;;;;;;;2.28;1.23;;;8.60;93.20;;;;;;5099462;28;20490;-72
2021/03/19 12:12:22;;;;;;;1.25;1.10;;;8.60;92.10;;;;;;5105453;28;20072;-72
2021/03/19 12:14:48;;;;;;;1.33;1.10;;;8.70;91.10;;;;;;5109272;28;20093;-73
2021/03/19 12:17:13;;;;;;;2.50;1.67;;;8.70;90.80;;;;;;5101213;28;20111;-72
2021/03/19 12:19:40;;;;;;;2.60;1.27;;;8.70;87.90;;;;;;5093256;28;20434;-72
2021/03/19 12:22:06;;;;;;;4.13;1.00;;;8.70;89.00;;;;;;5093172;28;20024;-73
2021/03/19 12:24:33;;;;;;;1.75;1.20;;;8.60;89.40;;;;;;5106772;28;20065;-72
2021/03/19 12:26:59;;;;;;;2.35;1.02;;;8.80;90.20;;;;;;5093172;28;20046;-73
2021/03/19 12:29:24;;;;;;;1.95;1.50;;;8.80;89.70;;;;;;5094020;28;20020;-71
2021/03/19 12:31:50;;;;;;;1.58;1.13;;;8.90;90.30;;;;;;5092934;28;20089;-72
2021/03/19 12:34:15;;;;;;;3.22;1.38;;;9.10;89.00;;;;;;5093656;28;20108;-72
2021/03/19 12:36:41;;;;;;;0.82;0.77;;;9.20;90.50;;;;;;5093429;28;20048;-73
2021/03/19 12:39:07;;;;;;;1.52;1.40;;;9.30;85.80;;;;;;5092995;28;20107;-73
2021/03/19 12:41:32;;;;;;;5.20;1.60;;;9.50;89.20;;;;;;5094089;28;20043;-72
2021/03/19 12:44:01;;;;;;;4.60;1.92;;;9.60;85.80;;;;;;5094003;28;20108;-73
2021/03/19 12:46:27;;;;;;;4.00;1.92;;;9.70;92.60;;;;;;5093008;28;20028;-73
2021/03/19 12:48:52;;;;;;;4.97;2.28;;;9.70;92.60;;;;;;5094288;28;20031;-72
2021/03/19 12:51:18;;;;;;;6.72;2.67;;;9.50;93.70;;;;;;5096244;28;20123;-72
2021/03/19 12:53:46;;;;;;;5.07;2.90;;;9.50;95.60;;;;;;5093557;28;20051;-73
2021/03/19 12:56:14;;;;;;;2.47;2.28;;;9.30;95.70;;;;;;5099997;28;20027;-72
2021/03/19 12:58:40;;;;;;;5.53;2.55;;;9.30;98.20;;;;;;5110850;28;20016;-72
2021/03/19 13:01:06;;;;;;;4.70;2.63;;;9.20;97.30;;;;;;5100511;28;20567;-72
2021/03/19 13:03:31;;;;;;;3.30;2.30;;;9.20;98.20;;;;;;5092726;28;20032;-72
2021/03/19 13:05:57;;;;;;;4.15;2.28;;;9.30;99.20;;;;;;5091850;28;20107;-71
2021/03/19 13:08:22;;;;;;;3.35;2.30;;;9.30;97.40;;;;;;5092277;28;20039;-72
2021/03/19 13:10:48;;;;;;;3.17;2.13;;;9.30;96.40;;;;;;5097244;28;20044;-72
2021/03/19 13:13:14;;;;;;;4.45;2.22;;;9.30;96.60;;;;;;5099981;28;20078;-73
2021/03/19 13:15:40;;;;;;;3.20;2.22;;;9.30;97.10;;;;;;5105891;28;20015;-72
2021/03/19 13:18:09;;;;;;;7.43;2.58;;;9.50;98.20;;;;;;5098530;28;20360;-72
2021/03/19 13:20:35;;;;;;;2.75;2.42;;;9.60;97.60;;;;;;5100972;28;20027;-73
2021/03/19 13:23:01;;;;;;;4.05;2.53;;;9.60;95.70;;;;;;5092094;28;20085;-71
2021/03/19 13:25:30;;;;;;;2.85;2.08;;;9.60;97.20;;;;;;5092382;28;20078;-72
2021/03/19 13:27:57;;;;;;;5.45;2.35;;;9.50;96.20;;;;;;5091404;28;20074;-73
2021/03/19 13:30:25;;;;;;;4.55;2.10;;;9.60;95.50;;;;;;5092240;28;20486;-72
2021/03/19 13:32:51;;;;;;;6.22;2.90;;;9.80;97.10;;;;;;5091891;28;20032;-72